Ana Sayfa
METAR-TAF:

METAR-TAF

Havaalanları :

Nanning, Çin

Enlem: 22-49N, Boylam: 108-21E, yükseklik: 73 m

Güncel hava durumu gözlemi

Rapor saat 23:00 UTC de 1 saat ve 14 dakika önce yapıldı.
Rüzgar doğudan 4 kt, doğu/kuzeydoğu ve doğu/güneydoğu arasında değişken
Sıcaklık 27°C
Nem 89%
Basınç 1001 hPa
Görüş mesafesi: 6000 m

METAR: ZGNN 202300Z 08002MPS 060V120 6000 NSC 27/25 Q1001 NOSIG

Saat: 08:14 (00:14 UTC)

Tahmin

Rapor saat 19:09 UTC de 5 saat ve 5 dakika önce yapıldı.
Ayın 21'si saat 00 UTC'den ayın 21'si saat 24 UTC'ye kadar geçerli Tahmin
Rüzgar doğu/kuzeydoğudan 6 kt
Görüş mesafesi: 7000 m
3300 ft yükseklikte parçalı bulutlu
Geçici
ayın 21'si saat 06 UTC'den ayın 21'si saat 12 UTC'ye kadar
2600 ft yükseklikte az bulutlu, Kümülonimbus.
3000 ft yükseklikte parçalı çok bulutlu

TAF: ZGNN 201909Z 2100/2124 06003MPS 7000 SCT033 TX35/2107Z TN25/2122Z TEMPO 2106/2112 FEW026CB BKN030

4.000'den fazla havaalanı için hava durumu gözlemleri ve tahminleri (METAR ve TAF raporları).

Kullanılabilir istasyonlar harita üzerinde sarı ve kırmızı noktalarla gösterilir.

İstasyonun adını görmek için fareyi noktanın üzerinde gezdirin.

Sonrasında hava gözlem ve tahminlerini görmek için tıklayın.

Haritayı değiştirmek için: yaklaştırmak için siyah artı işaretli yeşil düğmeye ve uzaklaştırmak için de eksi işaretli düğmeye hızla tıklayın; bitişik haritalar için yeşil okları kullanın.


METAR-TAF: